sensor_id;sensor_type;location;lat;lon;timestamp;temperature;humidity
80676;SHT30;70041;46.088;18.268;2023-10-19T00:01:13;12.38;65.11
80676;SHT30;70041;46.088;18.268;2023-10-19T00:03:40;12.45;65.57
80676;SHT30;70041;46.088;18.268;2023-10-19T00:06:06;12.41;65.37
80676;SHT30;70041;46.088;18.268;2023-10-19T00:08:31;12.44;64.48
80676;SHT30;70041;46.088;18.268;2023-10-19T00:11:07;12.49;64.22
80676;SHT30;70041;46.088;18.268;2023-10-19T00:13:33;12.57;65.41
80676;SHT30;70041;46.088;18.268;2023-10-19T00:16:01;12.42;67.24
80676;SHT30;70041;46.088;18.268;2023-10-19T00:18:32;12.38;67.97
80676;SHT30;70041;46.088;18.268;2023-10-19T00:21:00;12.40;68.61
80676;SHT30;70041;46.088;18.268;2023-10-19T00:23:36;12.44;68.16
80676;SHT30;70041;46.088;18.268;2023-10-19T00:26:03;12.41;68.53
80676;SHT30;70041;46.088;18.268;2023-10-19T00:28:39;12.42;67.35
80676;SHT30;70041;46.088;18.268;2023-10-19T00:31:05;12.37;70.13
80676;SHT30;70041;46.088;18.268;2023-10-19T00:33:34;12.21;71.03
80676;SHT30;70041;46.088;18.268;2023-10-19T00:36:07;12.17;72.06
80676;SHT30;70041;46.088;18.268;2023-10-19T00:38:37;12.14;72.16
80676;SHT30;70041;46.088;18.268;2023-10-19T00:41:03;12.13;72.02
80676;SHT30;70041;46.088;18.268;2023-10-19T00:43:41;12.16;70.73
80676;SHT30;70041;46.088;18.268;2023-10-19T00:46:14;12.16;71.51
80676;SHT30;70041;46.088;18.268;2023-10-19T00:48:54;12.14;72.30
80676;SHT30;70041;46.088;18.268;2023-10-19T00:51:22;12.12;70.59
80676;SHT30;70041;46.088;18.268;2023-10-19T00:53:58;12.10;71.81
80676;SHT30;70041;46.088;18.268;2023-10-19T00:56:25;12.10;68.62
80676;SHT30;70041;46.088;18.268;2023-10-19T00:58:54;12.08;70.96
80676;SHT30;70041;46.088;18.268;2023-10-19T01:01:28;12.06;70.17
80676;SHT30;70041;46.088;18.268;2023-10-19T01:03:54;12.14;70.60
80676;SHT30;70041;46.088;18.268;2023-10-19T01:06:22;12.16;70.68
80676;SHT30;70041;46.088;18.268;2023-10-19T01:08:48;12.13;71.43
80676;SHT30;70041;46.088;18.268;2023-10-19T01:11:16;12.24;71.50
80676;SHT30;70041;46.088;18.268;2023-10-19T01:13:46;12.24;71.22
80676;SHT30;70041;46.088;18.268;2023-10-19T01:16:15;12.24;70.20
80676;SHT30;70041;46.088;18.268;2023-10-19T01:18:47;12.24;69.81
80676;SHT30;70041;46.088;18.268;2023-10-19T01:21:12;12.18;69.89
80676;SHT30;70041;46.088;18.268;2023-10-19T01:23:38;12.14;69.86
80676;SHT30;70041;46.088;18.268;2023-10-19T01:26:04;12.13;70.57
80676;SHT30;70041;46.088;18.268;2023-10-19T01:28:37;12.08;70.29
80676;SHT30;70041;46.088;18.268;2023-10-19T01:31:06;12.10;70.84
80676;SHT30;70041;46.088;18.268;2023-10-19T01:33:32;12.12;70.05
80676;SHT30;70041;46.088;18.268;2023-10-19T01:35:59;12.16;70.00
80676;SHT30;70041;46.088;18.268;2023-10-19T01:38:38;12.20;69.66
80676;SHT30;70041;46.088;18.268;2023-10-19T01:41:05;12.10;69.69
80676;SHT30;70041;46.088;18.268;2023-10-19T01:43:33;12.18;68.59
80676;SHT30;70041;46.088;18.268;2023-10-19T01:45:59;12.18;68.75
80676;SHT30;70041;46.088;18.268;2023-10-19T01:48:40;12.21;68.62
80676;SHT30;70041;46.088;18.268;2023-10-19T01:51:07;12.24;68.53
80676;SHT30;70041;46.088;18.268;2023-10-19T01:53:37;12.28;68.15
80676;SHT30;70041;46.088;18.268;2023-10-19T01:56:09;12.28;68.81
80676;SHT30;70041;46.088;18.268;2023-10-19T01:58:37;12.26;68.83
80676;SHT30;70041;46.088;18.268;2023-10-19T02:01:05;12.26;69.95
80676;SHT30;70041;46.088;18.268;2023-10-19T02:03:55;12.17;71.76
80676;SHT30;70041;46.088;18.268;2023-10-19T02:06:25;12.23;69.42
80676;SHT30;70041;46.088;18.268;2023-10-19T02:09:00;12.27;69.69
80676;SHT30;70041;46.088;18.268;2023-10-19T02:11:27;12.30;69.53
80676;SHT30;70041;46.088;18.268;2023-10-19T02:13:55;12.26;70.72
80676;SHT30;70041;46.088;18.268;2023-10-19T02:16:21;12.26;69.98
80676;SHT30;70041;46.088;18.268;2023-10-19T02:18:49;12.21;70.05
80676;SHT30;70041;46.088;18.268;2023-10-19T02:21:15;12.27;69.27
80676;SHT30;70041;46.088;18.268;2023-10-19T02:23:44;12.28;69.25
80676;SHT30;70041;46.088;18.268;2023-10-19T02:26:10;12.30;69.91
80676;SHT30;70041;46.088;18.268;2023-10-19T02:28:39;12.27;70.82
80676;SHT30;70041;46.088;18.268;2023-10-19T02:31:05;12.27;69.93
80676;SHT30;70041;46.088;18.268;2023-10-19T02:33:42;12.21;69.91
80676;SHT30;70041;46.088;18.268;2023-10-19T02:36:11;12.23;71.27
80676;SHT30;70041;46.088;18.268;2023-10-19T02:38:39;12.13;71.63
80676;SHT30;70041;46.088;18.268;2023-10-19T02:41:04;12.16;70.89
80676;SHT30;70041;46.088;18.268;2023-10-19T02:43:30;12.12;70.91
80676;SHT30;70041;46.088;18.268;2023-10-19T02:45:58;12.07;71.60
80676;SHT30;70041;46.088;18.268;2023-10-19T02:48:25;12.13;71.96
80676;SHT30;70041;46.088;18.268;2023-10-19T02:50:50;12.21;70.45
80676;SHT30;70041;46.088;18.268;2023-10-19T02:53:15;12.28;70.79
80676;SHT30;70041;46.088;18.268;2023-10-19T02:55:44;12.24;70.49
80676;SHT30;70041;46.088;18.268;2023-10-19T02:58:09;12.31;70.68
80676;SHT30;70041;46.088;18.268;2023-10-19T03:00:39;12.31;70.55
80676;SHT30;70041;46.088;18.268;2023-10-19T03:03:05;12.33;70.84
80676;SHT30;70041;46.088;18.268;2023-10-19T03:05:31;12.33;70.95
80676;SHT30;70041;46.088;18.268;2023-10-19T03:08:00;12.37;71.78
80676;SHT30;70041;46.088;18.268;2023-10-19T03:10:31;12.34;71.74
80676;SHT30;70041;46.088;18.268;2023-10-19T03:13:08;12.31;72.17
80676;SHT30;70041;46.088;18.268;2023-10-19T03:15:33;12.31;71.36
80676;SHT30;70041;46.088;18.268;2023-10-19T03:17:59;12.23;71.92
80676;SHT30;70041;46.088;18.268;2023-10-19T03:20:27;12.26;72.33
80676;SHT30;70041;46.088;18.268;2023-10-19T03:22:53;12.18;71.23
80676;SHT30;70041;46.088;18.268;2023-10-19T03:25:18;12.23;71.06
80676;SHT30;70041;46.088;18.268;2023-10-19T03:28:02;12.31;71.09
80676;SHT30;70041;46.088;18.268;2023-10-19T03:30:34;12.38;70.95
80676;SHT30;70041;46.088;18.268;2023-10-19T03:33:04;12.38;71.03
80676;SHT30;70041;46.088;18.268;2023-10-19T03:35:30;12.38;71.20
80676;SHT30;70041;46.088;18.268;2023-10-19T03:37:55;12.28;72.04
80676;SHT30;70041;46.088;18.268;2023-10-19T03:40:23;12.21;71.61
80676;SHT30;70041;46.088;18.268;2023-10-19T03:42:57;12.24;71.35
80676;SHT30;70041;46.088;18.268;2023-10-19T03:45:23;12.27;71.26
80676;SHT30;70041;46.088;18.268;2023-10-19T03:47:50;12.26;71.33
80676;SHT30;70041;46.088;18.268;2023-10-19T03:50:19;12.26;71.79
80676;SHT30;70041;46.088;18.268;2023-10-19T03:52:47;12.17;71.90
80676;SHT30;70041;46.088;18.268;2023-10-19T03:55:12;12.21;71.96
80676;SHT30;70041;46.088;18.268;2023-10-19T03:57:41;12.10;72.15
80676;SHT30;70041;46.088;18.268;2023-10-19T04:00:12;12.00;72.55
80676;SHT30;70041;46.088;18.268;2023-10-19T04:02:41;11.98;73.12
80676;SHT30;70041;46.088;18.268;2023-10-19T04:05:10;12.00;73.49
80676;SHT30;70041;46.088;18.268;2023-10-19T04:07:39;11.97;73.79
80676;SHT30;70041;46.088;18.268;2023-10-19T04:10:06;12.08;73.87
80676;SHT30;70041;46.088;18.268;2023-10-19T04:12:33;12.14;73.90
80676;SHT30;70041;46.088;18.268;2023-10-19T04:15:02;12.12;75.45
80676;SHT30;70041;46.088;18.268;2023-10-19T04:17:46;12.12;75.68
80676;SHT30;70041;46.088;18.268;2023-10-19T04:20:17;12.14;75.59
80676;SHT30;70041;46.088;18.268;2023-10-19T04:22:49;12.17;74.68
80676;SHT30;70041;46.088;18.268;2023-10-19T04:25:16;12.21;74.78
80676;SHT30;70041;46.088;18.268;2023-10-19T04:27:44;12.28;74.86
80676;SHT30;70041;46.088;18.268;2023-10-19T04:30:11;12.34;75.39
80676;SHT30;70041;46.088;18.268;2023-10-19T04:32:52;12.44;75.09
80676;SHT30;70041;46.088;18.268;2023-10-19T04:35:27;12.36;75.35
80676;SHT30;70041;46.088;18.268;2023-10-19T04:37:55;12.41;75.26
80676;SHT30;70041;46.088;18.268;2023-10-19T04:40:22;12.37;75.26
80676;SHT30;70041;46.088;18.268;2023-10-19T04:42:50;12.44;75.99
80676;SHT30;70041;46.088;18.268;2023-10-19T04:45:15;12.34;76.56
80676;SHT30;70041;46.088;18.268;2023-10-19T04:47:41;12.34;76.08
80676;SHT30;70041;46.088;18.268;2023-10-19T04:50:07;12.26;76.74
80676;SHT30;70041;46.088;18.268;2023-10-19T04:52:33;12.14;77.39
80676;SHT30;70041;46.088;18.268;2023-10-19T04:54:59;12.07;77.60
80676;SHT30;70041;46.088;18.268;2023-10-19T04:57:26;12.06;77.41
80676;SHT30;70041;46.088;18.268;2023-10-19T04:59:52;12.03;77.49
80676;SHT30;70041;46.088;18.268;2023-10-19T05:02:17;12.01;77.66
80676;SHT30;70041;46.088;18.268;2023-10-19T05:04:43;12.01;77.94
80676;SHT30;70041;46.088;18.268;2023-10-19T05:07:09;11.98;78.35
80676;SHT30;70041;46.088;18.268;2023-10-19T05:09:37;11.90;78.75
80676;SHT30;70041;46.088;18.268;2023-10-19T05:12:05;11.94;78.80
80676;SHT30;70041;46.088;18.268;2023-10-19T05:14:34;11.96;79.08
80676;SHT30;70041;46.088;18.268;2023-10-19T05:17:01;12.01;78.80
80676;SHT30;70041;46.088;18.268;2023-10-19T05:19:30;12.08;78.67
80676;SHT30;70041;46.088;18.268;2023-10-19T05:21:56;12.06;78.95
80676;SHT30;70041;46.088;18.268;2023-10-19T05:24:21;12.10;78.84
80676;SHT30;70041;46.088;18.268;2023-10-19T05:26:48;12.17;78.64
80676;SHT30;70041;46.088;18.268;2023-10-19T05:29:14;12.18;78.63
80676;SHT30;70041;46.088;18.268;2023-10-19T05:31:39;12.17;78.88
80676;SHT30;70041;46.088;18.268;2023-10-19T05:34:04;12.14;79.14
80676;SHT30;70041;46.088;18.268;2023-10-19T05:36:30;12.16;79.23
80676;SHT30;70041;46.088;18.268;2023-10-19T05:38:57;12.17;79.14
80676;SHT30;70041;46.088;18.268;2023-10-19T05:41:23;12.24;79.27
80676;SHT30;70041;46.088;18.268;2023-10-19T05:43:48;12.34;78.68
80676;SHT30;70041;46.088;18.268;2023-10-19T05:46:15;12.36;78.76
80676;SHT30;70041;46.088;18.268;2023-10-19T05:48:44;12.37;78.72
80676;SHT30;70041;46.088;18.268;2023-10-19T05:51:10;12.44;78.25
80676;SHT30;70041;46.088;18.268;2023-10-19T05:53:36;12.47;78.29
80676;SHT30;70041;46.088;18.268;2023-10-19T05:56:02;12.42;79.17
80676;SHT30;70041;46.088;18.268;2023-10-19T05:58:28;12.44;78.24
80676;SHT30;70041;46.088;18.268;2023-10-19T06:00:58;12.45;77.96
80676;SHT30;70041;46.088;18.268;2023-10-19T06:03:23;12.47;78.15
80676;SHT30;70041;46.088;18.268;2023-10-19T06:05:49;12.52;78.15
80676;SHT30;70041;46.088;18.268;2023-10-19T06:08:14;12.58;77.77
80676;SHT30;70041;46.088;18.268;2023-10-19T06:10:39;12.67;77.86
80676;SHT30;70041;46.088;18.268;2023-10-19T06:13:06;12.69;76.47
80676;SHT30;70041;46.088;18.268;2023-10-19T06:15:35;12.61;77.06
80676;SHT30;70041;46.088;18.268;2023-10-19T06:18:00;12.75;76.79
80676;SHT30;70041;46.088;18.268;2023-10-19T06:20:26;12.75;76.50
80676;SHT30;70041;46.088;18.268;2023-10-19T06:22:56;12.79;76.22
80676;SHT30;70041;46.088;18.268;2023-10-19T06:25:24;12.84;76.35
80676;SHT30;70041;46.088;18.268;2023-10-19T06:27:51;12.85;76.60
80676;SHT30;70041;46.088;18.268;2023-10-19T06:30:18;12.93;76.53
80676;SHT30;70041;46.088;18.268;2023-10-19T06:32:46;12.99;76.47
80676;SHT30;70041;46.088;18.268;2023-10-19T06:35:12;13.03;76.81
80676;SHT30;70041;46.088;18.268;2023-10-19T06:37:38;13.03;76.17
80676;SHT30;70041;46.088;18.268;2023-10-19T06:40:04;13.05;76.08
80676;SHT30;70041;46.088;18.268;2023-10-19T06:42:31;13.09;76.71
80676;SHT30;70041;46.088;18.268;2023-10-19T06:44:57;12.92;75.67
80676;SHT30;70041;46.088;18.268;2023-10-19T06:47:22;12.84;75.54
80676;SHT30;70041;46.088;18.268;2023-10-19T06:49:48;12.86;75.54
80676;SHT30;70041;46.088;18.268;2023-10-19T06:52:13;12.88;75.62
80676;SHT30;70041;46.088;18.268;2023-10-19T06:54:41;12.82;76.33
80676;SHT30;70041;46.088;18.268;2023-10-19T06:57:07;12.85;75.82
80676;SHT30;70041;46.088;18.268;2023-10-19T06:59:34;12.85;76.73
80676;SHT30;70041;46.088;18.268;2023-10-19T07:01:59;12.85;77.74
80676;SHT30;70041;46.088;18.268;2023-10-19T07:04:26;12.98;76.96
80676;SHT30;70041;46.088;18.268;2023-10-19T07:06:53;12.99;77.13
80676;SHT30;70041;46.088;18.268;2023-10-19T07:09:19;13.20;76.03
80676;SHT30;70041;46.088;18.268;2023-10-19T07:11:44;13.44;75.63
80676;SHT30;70041;46.088;18.268;2023-10-19T07:14:11;13.75;73.59
80676;SHT30;70041;46.088;18.268;2023-10-19T07:16:39;13.97;73.50
80676;SHT30;70041;46.088;18.268;2023-10-19T07:19:05;14.08;72.42
80676;SHT30;70041;46.088;18.268;2023-10-19T07:21:30;14.28;71.66
80676;SHT30;70041;46.088;18.268;2023-10-19T07:24:00;14.46;72.31
80676;SHT30;70041;46.088;18.268;2023-10-19T07:26:30;14.49;70.62
80676;SHT30;70041;46.088;18.268;2023-10-19T07:28:59;14.55;71.35
80676;SHT30;70041;46.088;18.268;2023-10-19T07:31:25;14.56;71.36
80676;SHT30;70041;46.088;18.268;2023-10-19T07:33:53;14.51;72.70
80676;SHT30;70041;46.088;18.268;2023-10-19T07:36:21;14.56;72.41
80676;SHT30;70041;46.088;18.268;2023-10-19T07:38:46;14.71;72.19
80676;SHT30;70041;46.088;18.268;2023-10-19T07:41:13;14.82;71.92
80676;SHT30;70041;46.088;18.268;2023-10-19T07:43:38;14.97;70.88
80676;SHT30;70041;46.088;18.268;2023-10-19T07:46:04;15.08;70.08
80676;SHT30;70041;46.088;18.268;2023-10-19T07:48:30;15.26;70.63
80676;SHT30;70041;46.088;18.268;2023-10-19T07:50:55;15.44;69.54
80676;SHT30;70041;46.088;18.268;2023-10-19T07:53:21;15.50;69.14
80676;SHT30;70041;46.088;18.268;2023-10-19T07:55:47;15.44;69.11
80676;SHT30;70041;46.088;18.268;2023-10-19T07:58:12;15.54;70.87
80676;SHT30;70041;46.088;18.268;2023-10-19T08:00:38;15.58;69.25
80676;SHT30;70041;46.088;18.268;2023-10-19T08:03:04;15.78;69.48
80676;SHT30;70041;46.088;18.268;2023-10-19T08:05:30;15.88;68.54
80676;SHT30;70041;46.088;18.268;2023-10-19T08:07:56;16.01;68.57
80676;SHT30;70041;46.088;18.268;2023-10-19T08:10:26;16.20;68.84
80676;SHT30;70041;46.088;18.268;2023-10-19T08:12:52;16.49;67.31
80676;SHT30;70041;46.088;18.268;2023-10-19T08:15:18;16.71;68.01
80676;SHT30;70041;46.088;18.268;2023-10-19T08:17:47;16.76;67.24
80676;SHT30;70041;46.088;18.268;2023-10-19T08:20:13;16.80;67.13
80676;SHT30;70041;46.088;18.268;2023-10-19T08:22:48;16.78;67.44
80676;SHT30;70041;46.088;18.268;2023-10-19T08:25:14;16.67;66.30
80676;SHT30;70041;46.088;18.268;2023-10-19T08:27:41;16.87;67.01
80676;SHT30;70041;46.088;18.268;2023-10-19T08:30:10;17.17;67.03
80676;SHT30;70041;46.088;18.268;2023-10-19T08:32:36;17.38;63.90
80676;SHT30;70041;46.088;18.268;2023-10-19T08:35:02;17.56;63.29
80676;SHT30;70041;46.088;18.268;2023-10-19T08:37:28;17.80;62.96
80676;SHT30;70041;46.088;18.268;2023-10-19T08:39:54;18.10;62.90
80676;SHT30;70041;46.088;18.268;2023-10-19T08:42:19;18.31;61.75
80676;SHT30;70041;46.088;18.268;2023-10-19T08:44:45;18.40;61.37
80676;SHT30;70041;46.088;18.268;2023-10-19T08:47:11;18.38;60.86
80676;SHT30;70041;46.088;18.268;2023-10-19T08:49:37;18.14;60.72
80676;SHT30;70041;46.088;18.268;2023-10-19T08:52:03;18.14;61.23
80676;SHT30;70041;46.088;18.268;2023-10-19T08:54:31;18.06;61.12
80676;SHT30;70041;46.088;18.268;2023-10-19T08:56:59;17.99;61.93
80676;SHT30;70041;46.088;18.268;2023-10-19T08:59:24;18.10;61.95
80676;SHT30;70041;46.088;18.268;2023-10-19T09:01:50;18.09;62.15
80676;SHT30;70041;46.088;18.268;2023-10-19T09:04:16;18.09;61.46
80676;SHT30;70041;46.088;18.268;2023-10-19T09:06:44;18.12;61.79
80676;SHT30;70041;46.088;18.268;2023-10-19T09:09:12;18.14;62.10
80676;SHT30;70041;46.088;18.268;2023-10-19T09:11:50;18.06;61.12
80676;SHT30;70041;46.088;18.268;2023-10-19T09:14:31;18.13;61.85
80676;SHT30;70041;46.088;18.268;2023-10-19T09:17:01;18.26;62.89
80676;SHT30;70041;46.088;18.268;2023-10-19T09:19:43;18.21;61.36
80676;SHT30;70041;46.088;18.268;2023-10-19T09:22:10;18.20;61.33
80676;SHT30;70041;46.088;18.268;2023-10-19T09:24:47;18.14;61.77
80676;SHT30;70041;46.088;18.268;2023-10-19T09:27:16;18.14;61.29
80676;SHT30;70041;46.088;18.268;2023-10-19T09:29:43;18.14;61.92
80676;SHT30;70041;46.088;18.268;2023-10-19T09:32:08;18.26;62.37
80676;SHT30;70041;46.088;18.268;2023-10-19T09:34:35;18.26;63.20
80676;SHT30;70041;46.088;18.268;2023-10-19T09:37:02;18.37;62.19
80676;SHT30;70041;46.088;18.268;2023-10-19T09:39:31;18.41;60.78
80676;SHT30;70041;46.088;18.268;2023-10-19T09:42:09;18.38;61.54
80676;SHT30;70041;46.088;18.268;2023-10-19T09:44:45;18.45;63.28
80676;SHT30;70041;46.088;18.268;2023-10-19T09:47:22;18.50;62.84
80676;SHT30;70041;46.088;18.268;2023-10-19T09:49:51;18.61;63.47
80676;SHT30;70041;46.088;18.268;2023-10-19T09:52:17;18.68;62.47
80676;SHT30;70041;46.088;18.268;2023-10-19T09:57:50;18.92;61.40
80676;SHT30;70041;46.088;18.268;2023-10-19T10:00:19;19.08;61.17
80676;SHT30;70041;46.088;18.268;2023-10-19T10:02:57;19.15;62.08
80676;SHT30;70041;46.088;18.268;2023-10-19T10:08:33;19.52;60.74
80676;SHT30;70041;46.088;18.268;2023-10-19T10:11:34;19.42;59.62
80676;SHT30;70041;46.088;18.268;2023-10-19T10:13:59;19.29;60.98
80676;SHT30;70041;46.088;18.268;2023-10-19T10:16:28;19.27;60.44
80676;SHT30;70041;46.088;18.268;2023-10-19T10:19:00;19.33;60.18
80676;SHT30;70041;46.088;18.268;2023-10-19T10:21:26;19.33;60.55
80676;SHT30;70041;46.088;18.268;2023-10-19T10:23:54;19.40;60.07
80676;SHT30;70041;46.088;18.268;2023-10-19T10:26:27;19.46;60.73
80676;SHT30;70041;46.088;18.268;2023-10-19T10:29:22;19.81;60.08
80676;SHT30;70041;46.088;18.268;2023-10-19T10:31:49;20.42;59.08
80676;SHT30;70041;46.088;18.268;2023-10-19T10:37:08;20.13;58.26
80676;SHT30;70041;46.088;18.268;2023-10-19T10:39:35;20.13;58.23
80676;SHT30;70041;46.088;18.268;2023-10-19T10:42:08;20.18;57.44
80676;SHT30;70041;46.088;18.268;2023-10-19T10:44:39;20.32;57.35
80676;SHT30;70041;46.088;18.268;2023-10-19T10:47:10;20.64;57.28
80676;SHT30;70041;46.088;18.268;2023-10-19T10:54:51;21.50;54.42
80676;SHT30;70041;46.088;18.268;2023-10-19T10:57:19;21.50;55.21
80676;SHT30;70041;46.088;18.268;2023-10-19T10:59:45;21.73;54.35
80676;SHT30;70041;46.088;18.268;2023-10-19T11:02:20;22.01;54.13
80676;SHT30;70041;46.088;18.268;2023-10-19T11:04:47;22.02;53.54
80676;SHT30;70041;46.088;18.268;2023-10-19T11:07:19;22.00;53.82
80676;SHT30;70041;46.088;18.268;2023-10-19T11:09:48;22.26;54.11
80676;SHT30;70041;46.088;18.268;2023-10-19T11:12:14;22.42;52.94
80676;SHT30;70041;46.088;18.268;2023-10-19T11:14:59;22.32;53.04
80676;SHT30;70041;46.088;18.268;2023-10-19T11:17:26;22.08;52.77
80676;SHT30;70041;46.088;18.268;2023-10-19T11:19:58;22.06;52.90
80676;SHT30;70041;46.088;18.268;2023-10-19T11:22:27;21.97;54.12
80676;SHT30;70041;46.088;18.268;2023-10-19T11:24:53;21.77;53.95
80676;SHT30;70041;46.088;18.268;2023-10-19T11:27:26;22.04;54.55
80676;SHT30;70041;46.088;18.268;2023-10-19T11:29:59;22.31;54.49
80676;SHT30;70041;46.088;18.268;2023-10-19T11:32:36;22.51;53.84
80676;SHT30;70041;46.088;18.268;2023-10-19T11:35:06;22.56;53.26
80676;SHT30;70041;46.088;18.268;2023-10-19T11:40:12;23.04;51.95
80676;SHT30;70041;46.088;18.268;2023-10-19T11:42:38;23.13;52.68
80676;SHT30;70041;46.088;18.268;2023-10-19T11:45:03;23.04;53.19
80676;SHT30;70041;46.088;18.268;2023-10-19T11:47:31;23.02;53.36
80676;SHT30;70041;46.088;18.268;2023-10-19T11:49:57;23.00;52.54
80676;SHT30;70041;46.088;18.268;2023-10-19T11:52:22;22.96;53.28
80676;SHT30;70041;46.088;18.268;2023-10-19T11:54:48;22.93;53.11
80676;SHT30;70041;46.088;18.268;2023-10-19T11:57:13;22.73;53.91
80676;SHT30;70041;46.088;18.268;2023-10-19T11:59:39;22.84;53.93
80676;SHT30;70041;46.088;18.268;2023-10-19T12:02:06;22.99;52.80
80676;SHT30;70041;46.088;18.268;2023-10-19T12:04:32;23.07;53.16
80676;SHT30;70041;46.088;18.268;2023-10-19T12:07:01;23.34;52.31
80676;SHT30;70041;46.088;18.268;2023-10-19T12:09:28;23.50;52.39
80676;SHT30;70041;46.088;18.268;2023-10-19T12:11:53;23.62;52.20
80676;SHT30;70041;46.088;18.268;2023-10-19T12:14:19;23.48;52.86
80676;SHT30;70041;46.088;18.268;2023-10-19T12:16:46;23.44;53.54
80676;SHT30;70041;46.088;18.268;2023-10-19T12:19:12;23.21;53.04
80676;SHT30;70041;46.088;18.268;2023-10-19T12:21:39;23.15;52.79
80676;SHT30;70041;46.088;18.268;2023-10-19T12:24:07;23.48;52.46
80676;SHT30;70041;46.088;18.268;2023-10-19T12:26:33;23.53;52.56
80676;SHT30;70041;46.088;18.268;2023-10-19T12:28:58;23.68;51.28
80676;SHT30;70041;46.088;18.268;2023-10-19T12:31:24;23.81;50.80
80676;SHT30;70041;46.088;18.268;2023-10-19T12:33:50;24.12;51.18
80676;SHT30;70041;46.088;18.268;2023-10-19T12:36:16;24.25;50.57
80676;SHT30;70041;46.088;18.268;2023-10-19T12:38:54;24.32;50.94
80676;SHT30;70041;46.088;18.268;2023-10-19T12:41:22;24.12;51.06
80676;SHT30;70041;46.088;18.268;2023-10-19T12:43:48;23.90;51.72
80676;SHT30;70041;46.088;18.268;2023-10-19T12:46:17;23.99;52.16
80676;SHT30;70041;46.088;18.268;2023-10-19T12:48:44;24.20;51.12
80676;SHT30;70041;46.088;18.268;2023-10-19T12:51:12;24.40;50.65
80676;SHT30;70041;46.088;18.268;2023-10-19T12:53:39;24.40;49.84
80676;SHT30;70041;46.088;18.268;2023-10-19T12:56:05;24.12;50.24
80676;SHT30;70041;46.088;18.268;2023-10-19T12:58:31;24.04;50.89
80676;SHT30;70041;46.088;18.268;2023-10-19T13:00:57;23.86;51.11
80676;SHT30;70041;46.088;18.268;2023-10-19T13:03:24;23.92;51.03
80676;SHT30;70041;46.088;18.268;2023-10-19T13:05:52;23.88;51.22
80676;SHT30;70041;46.088;18.268;2023-10-19T13:08:19;23.95;51.19
80676;SHT30;70041;46.088;18.268;2023-10-19T13:10:47;23.86;51.20
80676;SHT30;70041;46.088;18.268;2023-10-19T13:13:14;23.59;51.52
80676;SHT30;70041;46.088;18.268;2023-10-19T13:15:45;23.33;52.33
80676;SHT30;70041;46.088;18.268;2023-10-19T13:18:11;23.00;53.21
80676;SHT30;70041;46.088;18.268;2023-10-19T13:20:50;22.83;53.89
80676;SHT30;70041;46.088;18.268;2023-10-19T13:23:18;22.76;53.86
80676;SHT30;70041;46.088;18.268;2023-10-19T13:25:50;22.64;54.02
80676;SHT30;70041;46.088;18.268;2023-10-19T13:28:20;22.69;54.34
80676;SHT30;70041;46.088;18.268;2023-10-19T13:30:52;22.70;54.32
80676;SHT30;70041;46.088;18.268;2023-10-19T13:33:21;22.74;54.06
80676;SHT30;70041;46.088;18.268;2023-10-19T13:35:47;22.92;54.03
80676;SHT30;70041;46.088;18.268;2023-10-19T13:38:14;22.96;54.47
80676;SHT30;70041;46.088;18.268;2023-10-19T13:40:41;22.93;54.69
80676;SHT30;70041;46.088;18.268;2023-10-19T13:43:07;22.92;54.59
80676;SHT30;70041;46.088;18.268;2023-10-19T13:45:35;22.93;54.65
80676;SHT30;70041;46.088;18.268;2023-10-19T13:48:04;22.74;54.86
80676;SHT30;70041;46.088;18.268;2023-10-19T13:50:31;22.63;55.35
80676;SHT30;70041;46.088;18.268;2023-10-19T13:52:57;22.52;56.22
80676;SHT30;70041;46.088;18.268;2023-10-19T13:55:24;22.32;56.64
80676;SHT30;70041;46.088;18.268;2023-10-19T13:57:50;22.09;57.33
80676;SHT30;70041;46.088;18.268;2023-10-19T14:00:17;22.02;57.91
80676;SHT30;70041;46.088;18.268;2023-10-19T14:02:52;21.94;58.07
80676;SHT30;70041;46.088;18.268;2023-10-19T14:05:19;21.77;58.43
80676;SHT30;70041;46.088;18.268;2023-10-19T14:07:46;21.75;58.76
80676;SHT30;70041;46.088;18.268;2023-10-19T14:10:12;21.65;59.41
80676;SHT30;70041;46.088;18.268;2023-10-19T14:12:47;21.58;59.48
80676;SHT30;70041;46.088;18.268;2023-10-19T14:15:16;21.57;59.57
80676;SHT30;70041;46.088;18.268;2023-10-19T14:17:46;21.55;59.83
80676;SHT30;70041;46.088;18.268;2023-10-19T14:20:14;21.50;59.99
80676;SHT30;70041;46.088;18.268;2023-10-19T14:22:46;21.55;60.07
80676;SHT30;70041;46.088;18.268;2023-10-19T14:25:13;21.58;60.16
80676;SHT30;70041;46.088;18.268;2023-10-19T14:27:43;21.64;59.91
80676;SHT30;70041;46.088;18.268;2023-10-19T14:30:10;21.71;60.06
80676;SHT30;70041;46.088;18.268;2023-10-19T14:32:42;21.68;59.74
80676;SHT30;70041;46.088;18.268;2023-10-19T14:35:11;21.64;59.99
80676;SHT30;70041;46.088;18.268;2023-10-19T14:37:40;21.65;60.13
80676;SHT30;70041;46.088;18.268;2023-10-19T14:40:19;21.65;60.35
80676;SHT30;70041;46.088;18.268;2023-10-19T14:42:49;21.62;60.06
80676;SHT30;70041;46.088;18.268;2023-10-19T14:45:19;21.64;59.97
80676;SHT30;70041;46.088;18.268;2023-10-19T14:47:49;21.67;59.92
80676;SHT30;70041;46.088;18.268;2023-10-19T14:50:17;21.64;59.64
80676;SHT30;70041;46.088;18.268;2023-10-19T14:52:44;21.67;59.82
80676;SHT30;70041;46.088;18.268;2023-10-19T14:55:11;21.73;59.67
80676;SHT30;70041;46.088;18.268;2023-10-19T14:57:41;21.78;59.36
80676;SHT30;70041;46.088;18.268;2023-10-19T15:00:09;21.77;59.67
80676;SHT30;70041;46.088;18.268;2023-10-19T15:02:47;21.58;59.91
80676;SHT30;70041;46.088;18.268;2023-10-19T15:05:13;21.61;60.08
80676;SHT30;70041;46.088;18.268;2023-10-19T15:07:40;21.53;60.12
80676;SHT30;70041;46.088;18.268;2023-10-19T15:10:12;21.34;60.87
80676;SHT30;70041;46.088;18.268;2023-10-19T15:12:42;21.33;61.10
80676;SHT30;70041;46.088;18.268;2023-10-19T15:15:13;21.30;61.09
80676;SHT30;70041;46.088;18.268;2023-10-19T15:17:42;21.16;61.60
80676;SHT30;70041;46.088;18.268;2023-10-19T15:20:10;21.04;62.31
80676;SHT30;70041;46.088;18.268;2023-10-19T15:22:38;20.96;62.57
80676;SHT30;70041;46.088;18.268;2023-10-19T15:25:05;20.98;62.57
80676;SHT30;70041;46.088;18.268;2023-10-19T15:27:33;20.96;62.67
80676;SHT30;70041;46.088;18.268;2023-10-19T15:29:58;20.96;62.49
80676;SHT30;70041;46.088;18.268;2023-10-19T15:32:24;20.96;62.95
80676;SHT30;70041;46.088;18.268;2023-10-19T15:34:52;20.90;63.03
80676;SHT30;70041;46.088;18.268;2023-10-19T15:37:18;20.90;63.32
80676;SHT30;70041;46.088;18.268;2023-10-19T15:39:44;20.93;63.35